Main page
Satellite images 10-day forecastsClimateMarine weather Cyclones Lightning AirportsFAQ Newsletter About
Weather : Europe Africa North America South America Asia Australia-Oceania Others
Languages Contact

Christchurch, New Zealand

Christchurch International Airport

latitude: 43-29S, longitude: 172-33E, elevation: 38 m


METAR: NZCH 292330Z AUTO 07004KT 9999 BKN090/// 08/04 Q1016 NOSIG
TAF: NZCH 292309Z 3000/3100 06010KT 9999 SCT050 BECMG 3003/3005 06015G25KT BECMG 3008/3010 VRB02KT PROB40 3012/3020 0250 FG

Time: 12:07 (00:07 UTC)

Current weather observation

The report was made 37 minutes ago, at 23:30 UTC
Wind 4 kt from the East/Northeast
Temperature 8°C
Humidity 76%
Pressure 1016 hPa
Visibility 10 km or more

Change units

Forecast

The report was made 58 minutes ago, at 23:09 UTC
Forecast valid from 30 at 00 UTC to 31 at 00 UTC
Wind 10 kt from the East/Northeast
Visibility 10 km or more
Scattered clouds at a height of 5000 ft
Becoming
from 30 at 03 UTC to 30 at 05 UTC
Wind 15 kt from the East/Northeast with gusts up to 25 kt
Becoming
from 30 at 08 UTC to 30 at 10 UTC
Wind 2 kt from variable directions
Probability 40%
from 30 at 12 UTC to 30 at 20 UTC
Visibility: 0250 m
fog
The information on this site is subject to a disclaimer
Weather : Europe Africa North America South America Asia Australia-Oceania Others
Satellite images 10-day forecastsClimateMarine weather Cyclones Lightning AirportsFAQ Languages Contact Newsletter About